createdAt,value
2022-11-18T00:00:23.600Z,165.91
2022-11-18T00:02:31.442Z,166.52
2022-11-18T00:04:37.210Z,169.32
2022-11-18T00:06:45.484Z,166.72
2022-11-18T00:08:55.072Z,168.38
2022-11-18T00:11:01.465Z,181.77
2022-11-18T00:13:19.512Z,178.88
2022-11-18T00:15:31.455Z,174.36
2022-11-18T00:17:37.454Z,164.11
2022-11-18T00:19:43.728Z,167.94
2022-11-18T00:21:50.437Z,167.59
2022-11-18T00:23:58.705Z,167.31
2022-11-18T00:26:09.406Z,174.21
2022-11-18T00:28:15.909Z,170.60
2022-11-18T00:30:23.052Z,167.14
2022-11-18T00:32:28.792Z,174.27
2022-11-18T00:34:35.394Z,174.11
2022-11-18T00:36:42.117Z,173.25
2022-11-18T00:38:48.446Z,176.00
2022-11-18T00:41:07.400Z,182.04
2022-11-18T00:43:10.405Z,186.10
2022-11-18T00:45:16.130Z,190.01
2022-11-18T00:47:22.635Z,183.55
2022-11-18T00:49:28.386Z,187.98
2022-11-18T00:51:34.054Z,184.71
2022-11-18T00:53:40.568Z,174.73
2022-11-18T00:55:46.893Z,177.08
2022-11-18T00:57:56.440Z,179.91
2022-11-18T01:00:09.931Z,185.39
2022-11-18T01:02:33.387Z,179.77
2022-11-18T01:04:39.164Z,185.88
2022-11-18T01:06:45.664Z,186.69
2022-11-18T01:08:51.458Z,173.49
2022-11-18T01:11:17.223Z,174.30
2022-11-18T01:13:26.023Z,172.19
2022-11-18T01:15:31.763Z,173.58
2022-11-18T01:17:45.614Z,164.60
2022-11-18T01:19:52.289Z,171.76
2022-11-18T01:22:09.916Z,174.29
2022-11-18T01:24:21.405Z,168.88
2022-11-18T01:26:27.977Z,165.67
2022-11-18T01:28:36.882Z,172.72
2022-11-18T01:30:45.869Z,176.10
2022-11-18T01:32:52.457Z,189.80
2022-11-18T01:34:58.382Z,187.98
2022-11-18T01:37:11.121Z,188.74
2022-11-18T01:39:17.775Z,194.64
2022-11-18T01:41:28.784Z,191.26
2022-11-18T01:43:53.803Z,178.33
2022-11-18T01:46:00.250Z,185.56
2022-11-18T01:48:23.424Z,194.38
2022-11-18T01:50:31.461Z,186.61
2022-11-18T01:52:41.704Z,184.06
2022-11-18T01:54:58.298Z,199.34
2022-11-18T01:57:17.292Z,197.51
2022-11-18T01:59:45.372Z,193.18
2022-11-18T02:01:54.064Z,192.67
2022-11-18T02:04:02.441Z,192.26
2022-11-18T02:06:19.806Z,187.11
2022-11-18T02:08:26.793Z,189.08
2022-11-18T02:10:33.341Z,195.34
2022-11-18T02:12:41.192Z,198.48
2022-11-18T02:14:51.842Z,201.25
2022-11-18T02:17:17.984Z,196.47
2022-11-18T02:20:06.174Z,192.48
2022-11-18T02:22:45.562Z,191.10
2022-11-18T02:25:10.082Z,195.09
2022-11-18T02:27:56.949Z,200.03
2022-11-18T02:30:09.983Z,206.88
2022-11-18T02:32:28.083Z,190.87
2022-11-18T02:34:54.108Z,193.88
2022-11-18T02:37:10.837Z,188.70
2022-11-18T02:39:26.790Z,202.00
2022-11-18T02:41:38.164Z,187.02
2022-11-18T02:43:54.276Z,185.08
2022-11-18T02:46:12.005Z,181.87
2022-11-18T02:48:29.595Z,184.24
2022-11-18T02:50:45.792Z,198.05
2022-11-18T04:35:23.501Z,154.36
2022-11-18T04:37:30.273Z,158.85
2022-11-18T04:39:35.959Z,159.44
2022-11-18T04:41:54.093Z,159.83
2022-11-18T04:44:00.670Z,160.31
2022-11-18T04:46:09.238Z,164.66
2022-11-18T04:48:14.946Z,162.72
2022-11-18T04:50:24.182Z,171.33
2022-11-18T04:52:32.480Z,166.45
2022-11-18T04:54:38.281Z,159.94
2022-11-18T04:56:49.399Z,165.21
2022-11-18T04:58:55.619Z,171.34
2022-11-18T05:01:01.329Z,178.16
2022-11-18T05:03:10.302Z,181.68
2022-11-18T05:05:16.178Z,186.52
2022-11-18T05:07:24.526Z,184.86
2022-11-18T05:09:32.498Z,170.70
2022-11-18T05:11:50.787Z,172.97
2022-11-18T05:13:57.245Z,171.14
2022-11-18T05:16:07.763Z,166.83
2022-11-18T05:18:19.193Z,170.31
2022-11-18T05:20:24.998Z,171.68
2022-11-18T05:22:40.432Z,170.78
2022-11-18T05:24:50.274Z,178.91
2022-11-18T05:26:57.882Z,171.22
2022-11-18T05:29:19.797Z,173.31
2022-11-18T05:31:38.121Z,186.57
2022-11-18T05:33:45.674Z,192.42
2022-11-18T05:35:55.551Z,189.33
2022-11-18T05:38:06.286Z,151.82
2022-11-18T05:40:17.497Z,158.00
2022-11-18T05:42:40.100Z,151.03
2022-11-18T05:44:45.781Z,150.86
2022-11-18T05:47:03.110Z,156.86
2022-11-18T05:49:13.987Z,160.34
2022-11-18T05:51:19.689Z,171.12
2022-11-18T05:53:35.267Z,158.75
2022-11-18T05:55:52.078Z,160.82
2022-11-18T05:57:58.180Z,161.37
2022-11-18T06:00:03.899Z,168.52
2022-11-18T06:02:30.496Z,163.97
2022-11-18T06:04:45.275Z,165.02
2022-11-18T06:06:57.784Z,167.53
2022-11-18T06:09:11.328Z,167.35
2022-11-18T06:11:23.160Z,170.25
2022-11-18T06:13:41.645Z,169.42
2022-11-18T06:15:49.507Z,178.10
2022-11-18T06:18:04.544Z,181.67
2022-11-18T06:20:13.295Z,187.65
2022-11-18T06:22:20.070Z,182.01
2022-11-18T06:24:29.271Z,190.99
2022-11-18T06:26:35.327Z,178.98
2022-11-18T06:28:44.385Z,179.03
2022-11-18T06:30:50.088Z,180.32
2022-11-18T06:32:55.965Z,185.25
2022-11-18T06:35:02.403Z,188.63
2022-11-18T06:37:16.711Z,196.42
2022-11-18T06:39:22.571Z,191.56
2022-11-18T06:41:31.725Z,200.54
2022-11-18T06:43:41.998Z,198.23
2022-11-18T06:46:09.374Z,213.64
2022-11-18T06:48:19.547Z,217.10
2022-11-18T06:50:25.213Z,208.01
2022-11-18T06:52:31.198Z,204.20
2022-11-18T06:54:37.728Z,201.44
2022-11-18T06:56:46.097Z,203.71
2022-11-18T06:59:04.967Z,200.79
2022-11-18T07:01:16.404Z,205.00
2022-11-18T07:03:22.095Z,198.43
2022-11-18T07:05:27.803Z,205.03
2022-11-18T07:07:43.197Z,200.73
2022-11-18T07:09:48.930Z,200.30
2022-11-18T07:11:57.261Z,190.66
2022-11-18T07:14:04.141Z,184.95
2022-11-18T07:16:18.888Z,194.47
2022-11-18T07:18:24.616Z,191.39
2022-11-18T07:20:31.255Z,190.17
2022-11-18T07:22:37.014Z,189.98
2022-11-18T07:24:43.562Z,203.75
2022-11-18T07:26:50.074Z,199.16
2022-11-18T07:29:00.290Z,180.28
2022-11-18T07:31:08.623Z,195.85
2022-11-18T07:33:15.111Z,213.36
2022-11-18T07:35:20.874Z,228.15
2022-11-18T07:37:26.839Z,210.39
2022-11-18T07:39:33.452Z,205.05
2022-11-18T07:41:39.548Z,185.73
2022-11-18T07:43:47.285Z,193.99
2022-11-18T07:45:56.454Z,187.89
2022-11-18T07:48:04.965Z,173.43
2022-11-18T07:50:21.514Z,174.28
2022-11-18T07:52:28.887Z,183.01
2022-11-18T07:54:34.737Z,181.18
2022-11-18T07:56:46.991Z,171.60
2022-11-18T07:58:57.024Z,174.15
2022-11-18T08:01:11.695Z,186.95
2022-11-18T08:03:17.460Z,188.63
2022-11-18T08:05:24.045Z,179.90
2022-11-18T08:07:30.021Z,184.47
2022-11-18T08:09:35.828Z,188.65
2022-11-18T08:11:42.321Z,183.18
2022-11-18T08:14:00.803Z,166.25
2022-11-18T08:16:19.462Z,147.58
2022-11-18T08:18:27.411Z,146.11
2022-11-18T08:20:37.688Z,148.33
2022-11-18T08:22:43.552Z,154.43
2022-11-18T08:24:50.383Z,158.53
2022-11-18T08:26:56.205Z,154.82
2022-11-18T08:29:14.518Z,171.72
2022-11-18T08:31:30.778Z,194.47
2022-11-18T08:33:36.540Z,197.57
2022-11-18T08:35:42.254Z,217.46
2022-11-18T08:37:48.833Z,172.08
2022-11-18T08:39:54.504Z,179.50
2022-11-18T08:42:01.999Z,195.74
2022-11-18T08:44:09.943Z,203.90
2022-11-18T08:46:15.731Z,189.70
2022-11-18T08:48:24.050Z,191.74
2022-11-18T08:50:30.591Z,186.23
2022-11-18T08:52:36.887Z,187.88
2022-11-18T08:54:42.750Z,173.18
2022-11-18T08:56:50.723Z,173.84
2022-11-18T08:58:57.399Z,185.59
2022-11-18T09:01:09.204Z,180.48
2022-11-18T09:03:16.160Z,181.96
2022-11-18T09:05:24.547Z,182.25
2022-11-18T09:07:30.359Z,168.68
2022-11-18T09:09:37.067Z,170.72
2022-11-18T09:11:43.424Z,161.52
2022-11-18T09:16:16.873Z,159.05
2022-11-18T09:18:23.860Z,170.52
2022-11-18T09:20:32.203Z,178.72
2022-11-18T09:22:40.380Z,180.49
2022-11-18T09:24:46.184Z,194.35
2022-11-18T09:26:53.802Z,178.53
2022-11-18T09:29:00.307Z,174.98
2022-11-18T09:31:08.264Z,185.35
2022-11-18T09:33:20.610Z,167.30
2022-11-18T09:35:27.490Z,179.06
2022-11-18T09:37:36.756Z,184.64
2022-11-18T09:39:42.603Z,188.32
2022-11-18T09:41:52.519Z,195.08
2022-11-18T09:44:17.187Z,196.05
2022-11-18T09:46:42.086Z,207.19
2022-11-18T09:49:07.495Z,198.60
2022-11-18T09:51:23.190Z,195.78
2022-11-18T09:53:31.948Z,190.57
2022-11-18T09:55:43.957Z,201.67
2022-11-18T09:57:54.175Z,192.38
2022-11-18T10:00:00.704Z,186.33
2022-11-18T10:02:53.748Z,182.76
2022-11-18T10:05:04.587Z,192.36
2022-11-18T10:07:24.894Z,193.38
2022-11-18T10:09:44.030Z,209.17
2022-11-18T10:12:14.664Z,213.18
2022-11-18T10:14:46.394Z,242.98
2022-11-18T10:17:13.100Z,214.90
2022-11-18T10:19:37.242Z,190.47
2022-11-18T10:22:07.150Z,171.17
2022-11-18T10:24:23.718Z,188.88
2022-11-18T10:26:44.654Z,180.41
2022-11-18T10:28:53.860Z,187.67
2022-11-18T10:31:09.984Z,195.04
2022-11-18T10:33:29.644Z,196.00
2022-11-18T10:35:38.777Z,192.61
2022-11-18T10:38:06.810Z,192.30
2022-11-18T10:40:31.128Z,209.06
2022-11-18T10:42:47.333Z,209.73
2022-11-18T10:44:53.940Z,212.86
2022-11-18T10:47:19.641Z,213.38
2022-11-18T10:49:28.178Z,256.92
2022-11-18T10:51:34.691Z,266.16
2022-11-18T10:53:42.623Z,270.53
2022-11-18T10:56:02.021Z,275.35
2022-11-18T10:58:22.238Z,273.21
2022-11-18T11:00:45.762Z,273.89
2022-11-18T11:02:51.586Z,266.53
2022-11-18T11:05:07.153Z,275.84
2022-11-18T11:07:32.151Z,284.67
2022-11-18T11:09:38.012Z,310.82
2022-11-18T11:12:04.969Z,288.61
2022-11-18T11:14:24.801Z,280.66
2022-11-18T11:16:43.802Z,283.26
2022-11-18T11:19:01.276Z,274.21
2022-11-18T11:21:12.264Z,269.74
2022-11-18T11:23:23.663Z,263.92
2022-11-18T11:28:31.933Z,275.51
2022-11-18T11:30:57.224Z,277.60
2022-11-18T11:33:25.015Z,276.32
2022-11-18T11:35:45.756Z,282.33
2022-11-18T11:37:58.980Z,295.13
2022-11-18T11:40:31.984Z,301.24
2022-11-18T11:42:52.168Z,307.66
2022-11-18T11:45:21.982Z,315.55
2022-11-18T11:47:57.131Z,308.18
2022-11-18T11:50:16.763Z,317.41
2022-11-18T11:52:48.408Z,296.43
2022-11-18T11:55:15.578Z,312.56
2022-11-18T11:57:44.088Z,289.91
2022-11-18T12:00:06.335Z,286.58
2022-11-18T12:02:56.872Z,274.37
2022-11-18T12:05:20.927Z,284.42
2022-11-18T12:07:33.816Z,279.47
2022-11-18T12:10:04.757Z,285.55
2022-11-18T12:12:40.333Z,273.50
2022-11-18T12:14:59.583Z,275.35
2022-11-18T12:17:28.399Z,285.97
2022-11-18T12:19:42.801Z,274.86
2022-11-18T12:22:07.237Z,280.37
2022-11-18T12:24:36.757Z,273.05
2022-11-18T12:26:43.976Z,286.43
2022-11-18T12:28:50.236Z,294.90
2022-11-18T12:31:36.397Z,286.37
2022-11-18T12:33:48.381Z,293.05
2022-11-18T12:35:56.874Z,291.00
2022-11-18T12:38:06.148Z,285.61
2022-11-18T12:40:33.659Z,289.75
2022-11-18T12:42:59.420Z,289.81
2022-11-18T12:45:49.674Z,297.93
2022-11-18T12:48:01.974Z,293.64
2022-11-18T12:50:14.173Z,303.66
2022-11-18T12:52:56.422Z,290.23
2022-11-18T12:55:07.816Z,293.00
2022-11-18T12:57:23.712Z,286.10
2022-11-18T12:59:40.021Z,273.63
2022-11-18T13:01:46.759Z,254.13
2022-11-18T13:03:53.060Z,258.22
2022-11-18T13:06:08.707Z,262.95
2022-11-18T13:08:22.157Z,271.62
2022-11-18T13:10:34.931Z,289.04
2022-11-18T13:12:40.988Z,279.10
2022-11-18T13:15:10.165Z,255.59
2022-11-18T13:17:44.757Z,246.23
2022-11-18T13:19:59.614Z,242.47
2022-11-18T13:22:19.250Z,245.85
2022-11-18T13:24:27.806Z,242.12
2022-11-18T13:26:46.268Z,254.93
2022-11-18T13:29:20.755Z,263.80
2022-11-18T13:31:45.795Z,258.90
2022-11-18T13:33:57.642Z,263.00
2022-11-18T13:36:04.401Z,250.43
2022-11-18T13:38:33.344Z,244.77
2022-11-18T13:41:04.711Z,253.21
2022-11-18T13:43:14.895Z,255.80
2022-11-18T13:45:21.256Z,253.33
2022-11-18T13:47:39.964Z,240.19
2022-11-18T13:50:01.865Z,240.62
2022-11-18T13:52:08.317Z,244.23
2022-11-18T13:54:23.688Z,257.89
2022-11-18T13:56:35.316Z,260.21
2022-11-18T13:59:15.805Z,266.27
2022-11-18T14:01:22.010Z,247.42
2022-11-18T14:03:35.531Z,232.38
2022-11-18T14:05:44.309Z,229.74
2022-11-18T14:08:09.232Z,240.83
2022-11-18T14:10:19.319Z,249.37
2022-11-18T14:12:32.745Z,236.13
2022-11-18T14:14:42.334Z,246.35
2022-11-18T14:16:48.100Z,261.17
2022-11-18T14:18:55.456Z,261.13
2022-11-18T14:21:04.632Z,279.01
2022-11-18T14:23:20.883Z,264.05
2022-11-18T14:25:33.359Z,265.60
2022-11-18T14:27:46.486Z,276.30
2022-11-18T14:29:53.408Z,278.37
2022-11-18T14:32:17.937Z,268.40
2022-11-18T14:34:30.146Z,255.05
2022-11-18T14:36:35.972Z,324.26
2022-11-18T14:39:19.405Z,276.62
2022-11-18T14:41:45.096Z,264.04
2022-11-18T14:43:53.653Z,283.74
2022-11-18T14:46:04.959Z,286.04
2022-11-18T14:48:18.787Z,281.00
2022-11-18T14:50:24.580Z,269.94
2022-11-18T14:52:30.291Z,290.42
2022-11-18T14:54:37.124Z,286.07
2022-11-18T14:56:43.020Z,286.86
2022-11-18T14:58:48.719Z,280.49
2022-11-18T15:00:57.991Z,270.92
2022-11-18T15:03:03.901Z,255.34
2022-11-18T15:05:22.352Z,263.94
2022-11-18T15:07:28.958Z,268.13
2022-11-18T15:09:34.732Z,261.92
2022-11-18T15:11:40.421Z,284.45
2022-11-18T15:13:46.969Z,376.79
2022-11-18T15:15:52.721Z,330.12
2022-11-18T15:18:01.147Z,275.53
2022-11-18T15:20:08.866Z,292.26
2022-11-18T15:22:14.633Z,291.08
2022-11-18T15:24:27.218Z,250.14
2022-11-18T15:26:41.651Z,262.34
2022-11-18T15:28:47.430Z,254.65
2022-11-18T15:30:55.973Z,243.20
2022-11-18T15:33:10.979Z,212.55
2022-11-18T15:35:17.327Z,223.25
2022-11-18T15:37:29.553Z,219.89
2022-11-18T15:39:40.158Z,202.20
2022-11-18T15:41:46.576Z,189.63
2022-11-18T15:43:53.843Z,182.17
2022-11-18T15:46:03.997Z,193.87
2022-11-18T15:48:13.267Z,210.19
2022-11-18T15:50:19.994Z,221.50
2022-11-18T15:52:27.422Z,210.88
2022-11-18T15:54:33.273Z,223.88
2022-11-18T15:56:40.130Z,233.21
2022-11-18T15:58:46.704Z,223.08
2022-11-18T16:00:52.456Z,229.63
2022-11-18T16:03:28.839Z,246.18
2022-11-18T16:05:35.511Z,242.84
2022-11-18T16:07:41.308Z,251.80
2022-11-18T16:10:04.988Z,310.17
2022-11-18T16:12:24.782Z,281.79
2022-11-18T16:14:30.614Z,235.71
2022-11-18T16:16:38.131Z,241.79
2022-11-18T16:18:51.830Z,223.38
2022-11-18T16:21:07.560Z,217.78
2022-11-18T16:23:15.533Z,216.48
2022-11-18T16:25:22.144Z,209.65
2022-11-18T16:27:31.887Z,205.06
2022-11-18T16:29:43.916Z,209.17
2022-11-18T16:31:54.865Z,207.78
2022-11-18T16:34:20.126Z,233.17
2022-11-18T16:36:29.603Z,239.41
2022-11-18T16:38:36.215Z,242.52
2022-11-18T16:40:42.083Z,232.26
2022-11-18T16:42:50.825Z,217.99
2022-11-18T16:44:57.333Z,226.88
2022-11-18T16:47:05.321Z,231.04
2022-11-18T16:49:21.398Z,244.68
2022-11-18T16:51:31.035Z,242.84
2022-11-18T16:53:36.801Z,230.79
2022-11-18T16:55:42.572Z,242.34
2022-11-18T16:57:49.068Z,248.28
2022-11-18T16:59:55.868Z,258.64
2022-11-18T17:02:03.989Z,271.02
2022-11-18T17:04:11.873Z,274.72
2022-11-18T17:06:20.137Z,245.18
2022-11-18T17:08:27.102Z,225.05
2022-11-18T17:10:33.603Z,223.18
2022-11-18T17:12:39.328Z,238.14
2022-11-18T17:14:52.239Z,241.65
2022-11-18T17:17:01.452Z,269.42
2022-11-18T17:19:11.816Z,228.01
2022-11-18T17:21:22.229Z,224.45
2022-11-18T17:23:31.335Z,228.95
2022-11-18T17:25:40.818Z,233.87
2022-11-18T17:27:46.695Z,250.56
2022-11-18T17:29:53.599Z,240.17
2022-11-18T17:31:59.932Z,270.30
2022-11-18T17:34:05.852Z,274.88
2022-11-18T17:36:15.338Z,272.32
2022-11-18T17:38:23.621Z,287.62
2022-11-18T17:40:29.336Z,295.36
2022-11-18T17:42:35.988Z,275.91
2022-11-18T17:44:41.943Z,307.79
2022-11-18T17:46:51.287Z,325.25
2022-11-18T17:49:00.623Z,313.95
2022-11-18T17:51:09.990Z,306.52
2022-11-18T17:53:17.406Z,360.10
2022-11-18T17:55:26.950Z,306.22
2022-11-18T17:57:32.688Z,306.93
2022-11-18T17:59:38.603Z,306.49
2022-11-18T18:01:45.368Z,296.57
2022-11-18T18:03:51.930Z,305.49
2022-11-18T18:06:04.911Z,310.87
2022-11-18T18:08:16.798Z,300.26
2022-11-18T18:10:27.072Z,293.54
2022-11-18T18:12:45.383Z,256.86
2022-11-18T18:14:52.075Z,262.91
2022-11-18T18:16:57.874Z,259.58
2022-11-18T18:19:07.716Z,266.35
2022-11-18T18:21:14.347Z,267.62
2022-11-18T18:23:20.196Z,273.28
2022-11-18T18:25:28.581Z,256.04
2022-11-18T18:27:35.252Z,246.29
2022-11-18T18:29:41.095Z,235.98
2022-11-18T18:31:47.047Z,250.34
2022-11-18T18:33:53.700Z,260.05
2022-11-18T18:36:00.149Z,274.33
2022-11-18T18:38:05.822Z,265.29
2022-11-18T18:40:15.076Z,258.69
2022-11-18T18:42:23.935Z,248.50
2022-11-18T18:44:49.645Z,251.44
2022-11-18T18:46:53.663Z,261.25
2022-11-18T18:49:03.014Z,271.33
2022-11-18T18:51:10.228Z,280.12
2022-11-18T18:53:16.856Z,269.19
2022-11-18T18:55:23.352Z,283.88
2022-11-18T18:57:32.380Z,275.97
2022-11-18T18:59:39.102Z,287.84
2022-11-18T19:01:45.370Z,283.81
2022-11-18T19:03:56.235Z,273.15
2022-11-18T19:06:27.746Z,269.76
2022-11-18T19:08:28.805Z,250.00
2022-11-18T19:10:34.595Z,260.74
2022-11-18T19:12:44.361Z,256.08
2022-11-18T19:14:50.545Z,260.39
2022-11-18T19:16:58.104Z,245.26
2022-11-18T19:19:06.084Z,219.29
2022-11-18T19:21:11.378Z,229.20
2022-11-18T19:23:17.720Z,244.43
2022-11-18T19:25:24.362Z,229.59
2022-11-18T19:27:30.362Z,226.63
2022-11-18T19:29:38.794Z,220.07
2022-11-18T19:31:45.401Z,242.88
2022-11-18T19:33:52.039Z,244.91
2022-11-18T19:35:58.002Z,261.13
2022-11-18T19:38:04.760Z,233.33
2022-11-18T19:40:13.309Z,197.46
2022-11-18T19:42:19.054Z,190.36
2022-11-18T19:44:25.802Z,196.60
2022-11-18T19:46:34.333Z,198.46
2022-11-18T19:48:40.126Z,172.19
2022-11-18T19:50:46.872Z,174.04
2022-11-18T19:52:52.656Z,180.58
2022-11-18T19:54:58.503Z,177.68
2022-11-18T19:57:05.918Z,172.52
2022-11-18T19:59:11.828Z,166.94
2022-11-18T20:01:22.977Z,170.95
2022-11-18T20:03:34.130Z,177.91
2022-11-18T20:05:52.278Z,186.03
2022-11-18T20:07:58.782Z,197.99
2022-11-18T20:10:06.849Z,191.61
2022-11-18T20:12:12.666Z,202.35
2022-11-18T20:14:18.350Z,203.49
2022-11-18T20:16:28.309Z,201.14
2022-11-18T20:18:38.390Z,181.08
2022-11-18T20:20:44.226Z,194.06
2022-11-18T20:22:50.884Z,204.86
2022-11-18T20:24:57.094Z,200.28
2022-11-18T20:27:02.968Z,180.47
2022-11-18T20:29:10.981Z,176.66
2022-11-18T20:31:19.778Z,173.49
2022-11-18T20:33:25.539Z,173.15
2022-11-18T20:35:35.151Z,171.32
2022-11-18T20:37:42.689Z,174.74
2022-11-18T20:39:48.441Z,171.32
2022-11-18T20:42:07.293Z,163.19
2022-11-18T20:44:13.091Z,165.05
2022-11-18T20:46:22.655Z,164.19
2022-11-18T20:48:29.524Z,162.01
2022-11-18T20:50:40.545Z,165.62
2022-11-18T20:52:46.317Z,162.17
2022-11-18T20:54:52.855Z,166.21
2022-11-18T20:56:58.688Z,166.11
2022-11-18T20:59:04.416Z,157.14
2022-11-18T21:01:13.428Z,152.69
2022-11-18T21:03:21.364Z,156.98
2022-11-18T21:05:27.625Z,164.54
2022-11-18T21:07:38.165Z,165.41
2022-11-18T21:09:43.922Z,162.87
2022-11-18T21:11:49.685Z,165.19
2022-11-18T21:14:09.373Z,167.93
2022-11-18T21:16:15.176Z,170.51
2022-11-18T21:18:20.920Z,163.34
2022-11-18T21:20:39.944Z,156.45
2022-11-18T21:22:48.414Z,163.28
2022-11-18T21:24:54.184Z,166.99
2022-11-18T21:27:03.176Z,171.19
2022-11-18T21:29:12.502Z,177.63
2022-11-18T21:31:23.237Z,185.17
2022-11-18T21:33:30.040Z,166.26
2022-11-18T21:35:38.956Z,165.14
2022-11-18T21:37:47.304Z,170.98
2022-11-18T21:39:53.838Z,168.53
2022-11-18T21:41:59.611Z,156.99
2022-11-18T21:44:06.729Z,160.37
2022-11-18T21:46:17.493Z,163.12
2022-11-18T21:48:23.160Z,167.36
2022-11-18T21:50:28.906Z,159.67
2022-11-18T21:52:35.387Z,145.12
2022-11-18T21:54:43.693Z,155.79
2022-11-18T21:56:49.554Z,151.81
2022-11-18T21:58:56.169Z,149.00
2022-11-18T22:01:10.693Z,150.69
2022-11-18T22:03:16.577Z,145.69
2022-11-18T22:05:23.130Z,147.61
2022-11-18T22:07:29.237Z,147.99
2022-11-18T22:09:36.950Z,155.54
2022-11-18T22:11:46.329Z,149.37
2022-11-18T22:13:54.122Z,149.11
2022-11-18T22:16:03.915Z,159.11
2022-11-18T22:18:10.572Z,159.92
2022-11-18T22:20:16.795Z,154.44
2022-11-18T22:22:22.466Z,158.99
2022-11-18T22:24:29.270Z,161.31
2022-11-18T22:26:35.003Z,154.92
2022-11-18T22:28:43.533Z,154.32
2022-11-18T22:30:50.109Z,156.65
2022-11-18T22:32:55.883Z,154.80
2022-11-18T22:35:01.644Z,161.27
2022-11-18T22:37:08.740Z,167.26
2022-11-18T22:39:14.498Z,175.65
2022-11-18T22:41:35.386Z,178.15
2022-11-18T22:43:44.543Z,177.43
2022-11-18T22:45:50.234Z,180.43
2022-11-18T22:47:56.040Z,183.64
2022-11-18T22:50:02.626Z,190.73
2022-11-18T22:52:08.815Z,188.08
2022-11-18T22:56:41.308Z,194.79
2022-11-18T22:58:50.148Z,198.87
2022-11-18T23:00:55.850Z,206.95
2022-11-18T23:03:02.413Z,213.11
2022-11-18T23:05:10.877Z,209.84
2022-11-18T23:07:16.817Z,203.51
2022-11-18T23:09:23.409Z,198.70
2022-11-18T23:11:41.581Z,208.09
2022-11-18T23:14:07.224Z,213.02
2022-11-18T23:16:13.914Z,210.80
2022-11-18T23:18:19.664Z,196.94
2022-11-18T23:20:25.323Z,200.35
2022-11-18T23:22:31.942Z,188.62
2022-11-18T23:24:39.179Z,191.59
2022-11-18T23:26:45.700Z,201.73
2022-11-18T23:28:55.872Z,197.80
2022-11-18T23:31:08.290Z,203.02
2022-11-18T23:33:14.045Z,198.45
2022-11-18T23:35:20.613Z,191.93
2022-11-18T23:37:26.266Z,198.90
2022-11-18T23:39:31.986Z,189.22
2022-11-18T23:41:38.837Z,192.07
2022-11-18T23:43:47.025Z,192.13
2022-11-18T23:45:56.351Z,189.16
2022-11-18T23:48:02.938Z,193.52
2022-11-18T23:50:10.142Z,182.70
2022-11-18T23:52:16.272Z,183.83
2022-11-18T23:54:22.815Z,184.63
2022-11-18T23:56:35.096Z,187.36
2022-11-18T23:58:47.832Z,191.81
